Time;durP1;ratioP1;P1;durP2;ratioP2;P2;SDS_P1;SDS_P2;PMS_P1;PMS_P2;Temp;Humidity;BMP_temperature;BMP_pressure;BME280_temperature;BME280_humidity;BME280_pressure;Samples;Min_cycle;Max_cycle;Signal;HPM_P1;HPM_P2
2023/06/05 00:00:43;;;;;;;7.13;4.68;;;;;;;;;;5048017;28;20042;-84
2023/06/05 00:03:08;;;;;;;7.65;4.57;;;;;;;;;;5051597;28;20030;-83
2023/06/05 00:05:34;;;;;;;7.05;4.68;;;;;;;;;;5050852;28;20029;-84
2023/06/05 00:08:00;;;;;;;6.00;4.70;;;;;;;;;;5050807;28;20041;-84
2023/06/05 00:10:25;;;;;;;6.63;5.05;;;;;;;;;;5036300;28;20043;-83
2023/06/05 00:12:51;;;;;;;8.23;4.40;;;;;;;;;;5034564;28;20030;-83
2023/06/05 00:15:16;;;;;;;9.60;4.63;;;;;;;;;;5050728;28;20048;-83
2023/06/05 00:17:42;;;;;;;6.57;4.90;;;;;;;;;;5051003;28;20040;-83
2023/06/05 00:20:11;;;;;;;7.70;4.55;;;;;;;;;;5050958;28;20034;-84
2023/06/05 00:22:37;;;;;;;6.32;4.30;;;;;;;;;;5040744;28;20027;-84
2023/06/05 00:25:03;;;;;;;6.35;4.70;;;;;;;;;;5056339;28;20037;-84
2023/06/05 00:27:28;;;;;;;7.22;4.25;;;;;;;;;;5053804;28;20399;-83
2023/06/05 00:29:54;;;;;;;9.95;4.57;;;;;;;;;;5051132;28;20037;-83
2023/06/05 00:32:20;;;;;;;7.05;4.30;;;;;;;;;;5050371;28;20088;-83
2023/06/05 00:34:46;;;;;;;8.13;4.43;;;;;;;;;;5016741;28;20055;-83
2023/06/05 00:37:15;;;;;;;7.38;4.78;;;;;;;;;;5051080;28;20120;-83
2023/06/05 00:39:41;;;;;;;7.40;4.43;;;;;;;;;;5038336;28;20108;-84
2023/06/05 00:42:08;;;;;;;7.25;4.60;;;;;;;;;;5054967;28;20033;-83
2023/06/05 00:44:34;;;;;;;7.15;4.22;;;;;;;;;;5052215;28;20033;-84
2023/06/05 00:47:01;;;;;;;6.05;4.72;;;;;;;;;;5050293;28;20037;-83
2023/06/05 00:49:28;;;;;;;9.95;5.00;;;;;;;;;;5065517;28;20029;-82
2023/06/05 00:51:54;;;;;;;6.47;4.43;;;;;;;;;;5063533;28;20087;-83
2023/06/05 00:54:20;;;;;;;5.93;4.43;;;;;;;;;;5042747;28;20037;-83
2023/06/05 00:56:46;;;;;;;9.23;4.68;;;;;;;;;;5020895;28;20038;-83
2023/06/05 00:59:13;;;;;;;6.97;4.60;;;;;;;;;;5032132;28;20033;-84
2023/06/05 01:01:40;;;;;;;6.38;4.32;;;;;;;;;;5017250;28;20112;-83
2023/06/05 01:04:05;;;;;;;6.53;4.50;;;;;;;;;;5045346;28;20127;-84
2023/06/05 01:06:33;;;;;;;6.95;4.10;;;;;;;;;;5024366;28;20057;-83
2023/06/05 01:09:00;;;;;;;7.30;4.15;;;;;;;;;;5023751;28;20080;-83
2023/06/05 01:11:48;;;;;;;4.78;3.55;;;;;;;;;;5042349;28;20503;-82
2023/06/05 01:14:27;;;;;;;4.50;3.50;;;;;;;;;;5025202;28;20034;-82
2023/06/05 01:16:54;;;;;;;4.28;3.40;;;;;;;;;;5018931;28;20396;-83
2023/06/05 01:19:20;;;;;;;4.80;3.70;;;;;;;;;;5042428;28;20138;-82
2023/06/05 01:21:47;;;;;;;4.93;3.47;;;;;;;;;;5042585;28;20032;-83
2023/06/05 01:24:13;;;;;;;4.43;3.60;;;;;;;;;;5028911;28;20026;-83
2023/06/05 01:27:00;;;;;;;7.65;4.10;;;;;;;;;;5026777;28;20100;-82
2023/06/05 01:30:24;;;;;;;5.50;3.75;;;;;;;;;;5037438;28;20029;-82
2023/06/05 01:32:56;;;;;;;5.78;3.38;;;;;;;;;;4940545;29;20188;-83
2023/06/05 01:35:27;;;;;;;5.63;3.83;;;;;;;;;;5001968;28;20110;-83
2023/06/05 01:37:54;;;;;;;6.10;3.70;;;;;;;;;;5023259;28;20625;-83
2023/06/05 01:40:22;;;;;;;4.80;3.70;;;;;;;;;;5023682;28;20475;-82
2023/06/05 01:42:50;;;;;;;5.60;3.58;;;;;;;;;;5041081;28;20383;-82
2023/06/05 01:45:17;;;;;;;7.25;4.63;;;;;;;;;;5037982;28;20040;-83
2023/06/05 01:47:48;;;;;;;6.65;3.90;;;;;;;;;;5033467;28;20045;-83
2023/06/05 01:50:14;;;;;;;7.70;3.70;;;;;;;;;;5047741;28;20032;-82
2023/06/05 01:52:44;;;;;;;5.18;3.80;;;;;;;;;;5025400;28;20037;-84
2023/06/05 01:55:16;;;;;;;5.45;3.70;;;;;;;;;;5005343;28;20034;-85
2023/06/05 01:57:43;;;;;;;6.32;3.58;;;;;;;;;;5027643;28;20246;-84
2023/06/05 02:00:12;;;;;;;4.95;3.83;;;;;;;;;;5034108;28;20120;-84
2023/06/05 02:02:42;;;;;;;5.35;3.75;;;;;;;;;;5051021;28;20036;-84
2023/06/05 02:05:14;;;;;;;6.47;3.90;;;;;;;;;;5028505;28;20080;-84
2023/06/05 02:07:43;;;;;;;5.43;3.78;;;;;;;;;;5040438;28;20033;-84
2023/06/05 02:10:09;;;;;;;4.88;3.45;;;;;;;;;;5059578;28;20111;-83
2023/06/05 02:12:41;;;;;;;6.60;3.90;;;;;;;;;;5038400;28;20059;-84
2023/06/05 02:15:08;;;;;;;7.78;4.00;;;;;;;;;;5033980;28;20511;-84
2023/06/05 02:17:34;;;;;;;5.50;3.72;;;;;;;;;;5027849;28;20029;-84
2023/06/05 02:20:00;;;;;;;4.60;3.50;;;;;;;;;;5039664;28;20051;-84
2023/06/05 02:22:26;;;;;;;4.55;3.40;;;;;;;;;;5040516;28;20029;-84
2023/06/05 02:24:51;;;;;;;5.97;3.90;;;;;;;;;;5062624;28;20123;-84
2023/06/05 02:27:19;;;;;;;4.82;3.67;;;;;;;;;;5061527;28;20025;-84
2023/06/05 02:29:45;;;;;;;6.35;3.60;;;;;;;;;;5040110;28;20036;-84
2023/06/05 02:32:11;;;;;;;6.75;3.95;;;;;;;;;;5054644;28;20088;-85
2023/06/05 02:34:37;;;;;;;5.30;3.90;;;;;;;;;;5018552;28;20041;-84
2023/06/05 02:37:03;;;;;;;5.05;3.95;;;;;;;;;;5018492;28;20101;-85
2023/06/05 02:39:31;;;;;;;4.35;3.67;;;;;;;;;;5035748;28;20044;-83
2023/06/05 02:41:57;;;;;;;6.97;3.90;;;;;;;;;;5035670;28;20037;-84
2023/06/05 02:44:23;;;;;;;4.88;3.70;;;;;;;;;;5039961;28;20105;-84
2023/06/05 02:46:49;;;;;;;5.53;4.10;;;;;;;;;;5039296;28;20045;-84
2023/06/05 02:49:15;;;;;;;6.10;4.03;;;;;;;;;;5019573;28;20089;-84
2023/06/05 02:51:40;;;;;;;7.15;3.85;;;;;;;;;;5034915;28;20064;-85
2023/06/05 02:54:06;;;;;;;6.93;4.57;;;;;;;;;;5034624;28;20101;-84
2023/06/05 02:56:32;;;;;;;5.53;4.32;;;;;;;;;;5035718;28;20533;-84
2023/06/05 02:58:57;;;;;;;7.38;5.38;;;;;;;;;;5041844;28;20045;-84
2023/06/05 03:01:25;;;;;;;7.95;4.68;;;;;;;;;;5025336;28;20029;-85
2023/06/05 03:03:52;;;;;;;5.10;4.40;;;;;;;;;;5038134;28;20033;-84
2023/06/05 03:06:18;;;;;;;5.90;4.30;;;;;;;;;;5033943;28;20033;-84
2023/06/05 03:08:46;;;;;;;10.38;4.32;;;;;;;;;;5019553;28;20034;-83
2023/06/05 03:11:16;;;;;;;6.60;4.50;;;;;;;;;;5048802;28;20033;-83
2023/06/05 03:13:42;;;;;;;6.13;4.15;;;;;;;;;;5034900;28;20033;-84
2023/06/05 03:16:09;;;;;;;8.50;4.25;;;;;;;;;;5034821;28;20034;-85
2023/06/05 03:18:37;;;;;;;8.57;4.68;;;;;;;;;;5037922;28;20030;-84
2023/06/05 03:21:03;;;;;;;7.75;4.80;;;;;;;;;;5020445;28;20056;-85
2023/06/05 03:23:29;;;;;;;7.22;5.07;;;;;;;;;;5041000;28;20067;-84
2023/06/05 03:25:58;;;;;;;6.18;4.45;;;;;;;;;;5050602;28;20017;-84
2023/06/05 03:28:24;;;;;;;10.93;5.10;;;;;;;;;;5031813;28;20055;-84
2023/06/05 03:30:52;;;;;;;6.07;4.45;;;;;;;;;;5044186;28;20029;-84
2023/06/05 03:33:20;;;;;;;6.10;4.57;;;;;;;;;;5040927;28;20057;-85
2023/06/05 03:35:49;;;;;;;5.70;4.57;;;;;;;;;;5038237;28;20026;-84
2023/06/05 03:38:15;;;;;;;6.97;4.70;;;;;;;;;;5035401;28;20041;-84
2023/06/05 03:40:41;;;;;;;7.00;4.57;;;;;;;;;;5033489;28;20033;-84
2023/06/05 03:43:10;;;;;;;7.05;4.82;;;;;;;;;;5032876;28;20534;-84
2023/06/05 03:45:40;;;;;;;6.38;4.60;;;;;;;;;;5040828;28;20039;-83
2023/06/05 03:48:08;;;;;;;9.70;4.97;;;;;;;;;;5042322;28;20030;-84
2023/06/05 03:50:41;;;;;;;7.60;4.63;;;;;;;;;;5039102;28;20033;-84
2023/06/05 03:53:08;;;;;;;5.45;4.20;;;;;;;;;;5031555;28;20034;-84
2023/06/05 03:55:41;;;;;;;7.10;4.25;;;;;;;;;;5016843;28;20030;-84
2023/06/05 03:58:13;;;;;;;7.25;4.28;;;;;;;;;;5033094;28;20041;-83
2023/06/05 04:00:43;;;;;;;8.23;4.13;;;;;;;;;;5047092;28;20042;-84
2023/06/05 04:03:13;;;;;;;8.65;4.50;;;;;;;;;;5032434;28;20026;-84
2023/06/05 04:05:39;;;;;;;5.88;4.38;;;;;;;;;;5038210;28;20040;-84
2023/06/05 04:08:06;;;;;;;7.45;4.30;;;;;;;;;;5036935;28;20467;-84
2023/06/05 04:10:33;;;;;;;5.30;3.95;;;;;;;;;;5033757;28;20030;-84
2023/06/05 04:12:59;;;;;;;6.72;3.92;;;;;;;;;;5049418;28;20037;-84
2023/06/05 04:15:25;;;;;;;7.57;4.20;;;;;;;;;;5032999;28;20608;-83
2023/06/05 04:17:52;;;;;;;8.35;4.53;;;;;;;;;;5026787;28;20013;-84
2023/06/05 04:20:18;;;;;;;7.50;4.82;;;;;;;;;;5042445;28;20116;-83
2023/06/05 04:22:47;;;;;;;6.00;4.22;;;;;;;;;;5039428;28;20034;-83
2023/06/05 04:25:14;;;;;;;5.60;4.13;;;;;;;;;;5036054;28;20057;-84
2023/06/05 04:27:43;;;;;;;7.07;4.50;;;;;;;;;;5032516;28;20561;-84
2023/06/05 04:30:10;;;;;;;6.20;4.18;;;;;;;;;;5049755;28;20057;-83
2023/06/05 04:32:37;;;;;;;5.47;4.03;;;;;;;;;;5046762;28;20033;-83
2023/06/05 04:35:08;;;;;;;5.85;4.07;;;;;;;;;;5043853;28;20106;-83
2023/06/05 04:37:37;;;;;;;7.03;4.00;;;;;;;;;;5040074;28;20036;-84
2023/06/05 04:40:09;;;;;;;7.82;4.20;;;;;;;;;;5030679;28;20116;-83
2023/06/05 04:42:38;;;;;;;6.68;4.53;;;;;;;;;;5032704;28;20105;-83
2023/06/05 04:45:07;;;;;;;5.68;4.25;;;;;;;;;;5039359;28;20096;-83
2023/06/05 04:47:35;;;;;;;6.28;4.35;;;;;;;;;;5030890;28;20033;-84
2023/06/05 04:50:03;;;;;;;7.55;5.07;;;;;;;;;;5048416;28;20074;-83
2023/06/05 04:52:35;;;;;;;7.75;4.70;;;;;;;;;;5030650;28;20082;-84
2023/06/05 04:55:01;;;;;;;6.03;4.57;;;;;;;;;;5020512;28;20061;-83
2023/06/05 04:57:29;;;;;;;6.68;4.80;;;;;;;;;;5035033;28;20033;-84
2023/06/05 04:59:56;;;;;;;6.78;4.20;;;;;;;;;;5032374;28;20049;-83
2023/06/05 05:02:23;;;;;;;5.93;4.28;;;;;;;;;;5062778;28;20055;-84
2023/06/05 05:04:49;;;;;;;7.03;4.68;;;;;;;;;;5013987;28;20495;-84
2023/06/05 05:07:16;;;;;;;6.00;4.35;;;;;;;;;;5014227;28;20103;-84
2023/06/05 05:09:43;;;;;;;6.60;4.80;;;;;;;;;;5030208;28;20045;-84
2023/06/05 05:12:09;;;;;;;9.70;4.47;;;;;;;;;;5035611;28;20029;-85
2023/06/05 05:14:36;;;;;;;9.38;4.93;;;;;;;;;;5018123;28;20037;-83
2023/06/05 05:17:02;;;;;;;12.93;4.80;;;;;;;;;;5031751;28;20029;-84
2023/06/05 05:19:28;;;;;;;6.47;4.55;;;;;;;;;;5014712;28;20041;-84
2023/06/05 05:21:57;;;;;;;5.20;4.07;;;;;;;;;;5030611;28;20032;-84
2023/06/05 05:24:24;;;;;;;6.22;4.55;;;;;;;;;;5030271;28;20121;-83
2023/06/05 05:26:51;;;;;;;8.20;4.72;;;;;;;;;;5020147;28;20033;-83
2023/06/05 05:29:17;;;;;;;6.65;3.97;;;;;;;;;;5028717;28;20037;-84
2023/06/05 05:31:44;;;;;;;7.47;4.22;;;;;;;;;;5028634;28;20040;-84
2023/06/05 05:34:10;;;;;;;7.32;4.40;;;;;;;;;;5013580;28;20029;-84
2023/06/05 05:36:38;;;;;;;5.07;4.03;;;;;;;;;;5013991;28;20034;-83
2023/06/05 05:39:04;;;;;;;6.10;3.80;;;;;;;;;;5047180;28;20040;-83
2023/06/05 05:41:31;;;;;;;5.75;4.10;;;;;;;;;;5030325;28;20091;-83
2023/06/05 05:43:56;;;;;;;4.72;3.83;;;;;;;;;;5030395;28;20037;-83
2023/06/05 05:46:22;;;;;;;6.78;4.10;;;;;;;;;;5030229;28;20041;-82
2023/06/05 05:48:47;;;;;;;5.35;4.00;;;;;;;;;;5030718;28;20022;-83
2023/06/05 05:51:13;;;;;;;6.68;4.32;;;;;;;;;;5030048;28;20033;-83
2023/06/05 05:53:38;;;;;;;6.45;4.10;;;;;;;;;;5042553;28;20097;-83
2023/06/05 05:56:04;;;;;;;6.07;4.30;;;;;;;;;;5060475;28;20060;-82
2023/06/05 05:58:31;;;;;;;5.78;4.18;;;;;;;;;;5057103;28;20900;-82
2023/06/05 06:00:57;;;;;;;5.43;4.20;;;;;;;;;;5054005;28;20537;-82
2023/06/05 06:03:23;;;;;;;7.43;4.00;;;;;;;;;;5034296;28;20037;-82
2023/06/05 06:05:49;;;;;;;6.72;4.25;;;;;;;;;;5048196;28;20064;-83
2023/06/05 06:08:15;;;;;;;7.15;4.38;;;;;;;;;;5047019;28;20041;-81
2023/06/05 06:10:40;;;;;;;6.82;4.38;;;;;;;;;;5028413;28;20064;-83
2023/06/05 06:13:06;;;;;;;7.30;4.30;;;;;;;;;;5046404;28;20034;-83
2023/06/05 06:15:32;;;;;;;7.72;4.18;;;;;;;;;;5048720;28;20581;-83
2023/06/05 06:17:59;;;;;;;5.60;4.10;;;;;;;;;;5035585;28;20037;-83
2023/06/05 06:20:25;;;;;;;5.22;3.92;;;;;;;;;;5047353;28;20044;-84
2023/06/05 06:22:50;;;;;;;5.43;4.18;;;;;;;;;;5029966;28;20049;-83
2023/06/05 06:25:17;;;;;;;5.55;3.97;;;;;;;;;;5030044;28;20041;-83
2023/06/05 06:27:45;;;;;;;6.13;4.43;;;;;;;;;;5030871;28;20048;-83
2023/06/05 06:30:12;;;;;;;5.50;4.47;;;;;;;;;;5048034;28;20044;-83
2023/06/05 06:32:37;;;;;;;7.32;4.20;;;;;;;;;;5031296;28;20101;-83
2023/06/05 06:35:03;;;;;;;8.13;4.45;;;;;;;;;;5049274;28;20061;-82
2023/06/05 06:37:29;;;;;;;6.45;4.80;;;;;;;;;;5033696;28;20041;-82
2023/06/05 06:39:54;;;;;;;5.43;4.35;;;;;;;;;;5049640;28;20047;-83
2023/06/05 06:42:20;;;;;;;8.88;4.70;;;;;;;;;;5049714;28;20044;-83
2023/06/05 06:44:59;;;;;;;6.97;4.70;;;;;;;;;;5030322;28;20029;-80
2023/06/05 06:47:25;;;;;;;5.90;4.60;;;;;;;;;;5056745;28;20085;-82
2023/06/05 06:49:51;;;;;;;6.22;4.75;;;;;;;;;;5050981;28;20045;-82
2023/06/05 06:52:18;;;;;;;8.07;5.03;;;;;;;;;;5050030;28;20048;-82
2023/06/05 06:54:44;;;;;;;6.95;4.80;;;;;;;;;;5030858;28;20044;-82
2023/06/05 06:57:09;;;;;;;6.97;4.70;;;;;;;;;;5032945;28;20067;-83
2023/06/05 06:59:35;;;;;;;8.68;4.43;;;;;;;;;;5050052;28;20029;-82
2023/06/05 07:02:13;;;;;;;6.13;4.30;;;;;;;;;;5042332;28;20494;-84
2023/06/05 07:04:41;;;;;;;6.28;4.50;;;;;;;;;;5050153;28;20030;-85
2023/06/05 07:07:12;;;;;;;7.10;4.50;;;;;;;;;;5032636;28;20029;-83
2023/06/05 07:09:38;;;;;;;8.35;4.80;;;;;;;;;;5050738;28;20030;-83
2023/06/05 07:12:05;;;;;;;6.75;4.75;;;;;;;;;;5036773;28;20092;-82
2023/06/05 07:14:35;;;;;;;6.28;4.90;;;;;;;;;;5050204;28;20102;-83
2023/06/05 07:17:01;;;;;;;7.15;4.80;;;;;;;;;;5031225;28;20036;-83
2023/06/05 07:19:28;;;;;;;7.97;4.88;;;;;;;;;;5037020;28;20061;-82
2023/06/05 07:21:58;;;;;;;8.07;5.25;;;;;;;;;;5040418;28;20034;-83
2023/06/05 07:24:24;;;;;;;7.57;5.32;;;;;;;;;;5052925;28;20084;-81
2023/06/05 07:26:58;;;;;;;10.35;5.45;;;;;;;;;;5019427;28;20041;-83
2023/06/05 07:29:24;;;;;;;7.57;4.93;;;;;;;;;;5011178;28;20038;-82
2023/06/05 07:31:55;;;;;;;8.57;5.82;;;;;;;;;;5015490;28;20048;-82
2023/06/05 07:34:22;;;;;;;9.57;5.65;;;;;;;;;;5030796;28;20124;-83
2023/06/05 07:36:50;;;;;;;6.68;5.60;;;;;;;;;;5039173;28;20079;-83
2023/06/05 07:39:16;;;;;;;8.60;6.15;;;;;;;;;;5022047;28;20041;-82
2023/06/05 07:41:42;;;;;;;10.23;6.05;;;;;;;;;;5053628;28;20032;-83
2023/06/05 07:44:10;;;;;;;8.30;6.28;;;;;;;;;;5031714;28;20034;-82
2023/06/05 07:46:36;;;;;;;9.23;6.68;;;;;;;;;;5031423;28;20037;-83
2023/06/05 07:49:01;;;;;;;9.18;6.43;;;;;;;;;;5026484;28;20384;-83
2023/06/05 07:51:27;;;;;;;10.15;6.43;;;;;;;;;;5061051;28;20045;-83
2023/06/05 07:53:52;;;;;;;9.75;6.47;;;;;;;;;;5055628;28;20421;-83
2023/06/05 07:56:18;;;;;;;10.73;6.35;;;;;;;;;;5035461;28;20045;-85
2023/06/05 07:58:43;;;;;;;10.48;6.70;;;;;;;;;;5051446;28;20037;-84
2023/06/05 08:01:12;;;;;;;10.15;6.80;;;;;;;;;;5014230;28;20038;-86
2023/06/05 08:03:37;;;;;;;9.52;6.65;;;;;;;;;;5029711;28;20034;-85
2023/06/05 08:06:03;;;;;;;10.82;7.90;;;;;;;;;;5050731;28;20052;-86
2023/06/05 08:08:29;;;;;;;11.48;7.50;;;;;;;;;;5050228;28;20037;-84
2023/06/05 08:10:55;;;;;;;8.85;6.85;;;;;;;;;;5050898;28;20045;-84
2023/06/05 08:13:21;;;;;;;11.27;7.53;;;;;;;;;;5048554;28;20116;-85
2023/06/05 08:15:46;;;;;;;8.85;7.60;;;;;;;;;;5048249;28;20041;-86
2023/06/05 08:18:14;;;;;;;11.93;7.75;;;;;;;;;;5035735;28;20075;-85
2023/06/05 08:20:40;;;;;;;10.73;7.32;;;;;;;;;;5066050;28;20033;-84
2023/06/05 08:23:05;;;;;;;10.90;7.63;;;;;;;;;;5044689;28;20044;-84
2023/06/05 08:25:31;;;;;;;9.98;7.13;;;;;;;;;;5059258;28;20040;-85
2023/06/05 08:27:56;;;;;;;11.27;7.30;;;;;;;;;;5056913;28;20071;-85
2023/06/05 08:30:22;;;;;;;10.63;7.80;;;;;;;;;;5035519;28;20037;-84
2023/06/05 08:32:47;;;;;;;9.75;7.15;;;;;;;;;;5048480;28;20029;-84
2023/06/05 08:35:13;;;;;;;9.80;7.28;;;;;;;;;;5039547;28;20041;-83
2023/06/05 08:37:39;;;;;;;9.30;7.90;;;;;;;;;;5044149;28;20063;-84
2023/06/05 08:40:10;;;;;;;11.00;8.00;;;;;;;;;;5025607;28;20033;-84
2023/06/05 08:42:37;;;;;;;8.65;7.22;;;;;;;;;;5010935;28;20041;-84
2023/06/05 08:45:07;;;;;;;11.55;7.70;;;;;;;;;;5011192;28;20196;-84
2023/06/05 08:47:36;;;;;;;13.63;8.27;;;;;;;;;;5047177;28;20040;-84
2023/06/05 08:50:04;;;;;;;10.48;7.57;;;;;;;;;;5027892;28;20041;-85
2023/06/05 08:52:33;;;;;;;12.32;8.27;;;;;;;;;;5047848;28;20040;-83
2023/06/05 08:54:58;;;;;;;10.05;8.02;;;;;;;;;;5012558;28;20044;-83
2023/06/05 08:57:24;;;;;;;8.55;7.50;;;;;;;;;;5047446;28;20061;-83
2023/06/05 08:59:50;;;;;;;11.35;7.68;;;;;;;;;;5030795;28;20106;-83
2023/06/05 09:02:16;;;;;;;9.20;7.93;;;;;;;;;;5029735;28;20036;-83
2023/06/05 09:04:41;;;;;;;11.32;7.63;;;;;;;;;;5046622;28;20070;-84
2023/06/05 09:07:07;;;;;;;9.73;7.82;;;;;;;;;;5028391;28;20088;-84
2023/06/05 09:09:33;;;;;;;12.02;8.18;;;;;;;;;;5047223;28;20080;-83
2023/06/05 09:12:06;;;;;;;12.43;7.80;;;;;;;;;;5040313;28;20048;-83
2023/06/05 09:14:35;;;;;;;;;;;;;;;;;;5046513;28;20529;-83
2023/06/05 09:17:03;;;;;;;10.00;7.75;;;;;;;;;;5054223;28;20410;-84
2023/06/05 09:19:43;;;;;;;11.40;7.80;;;;;;;;;;5035371;28;20060;-85
2023/06/05 09:22:10;;;;;;;11.25;7.35;;;;;;;;;;5032101;28;20045;-83
2023/06/05 09:24:36;;;;;;;8.40;6.63;;;;;;;;;;5012704;28;20034;-82
2023/06/05 09:27:09;;;;;;;10.75;7.53;;;;;;;;;;5045467;28;20037;-83
2023/06/05 09:29:40;;;;;;;10.60;7.50;;;;;;;;;;5044435;28;20041;-84
2023/06/05 09:32:19;;;;;;;10.57;7.70;;;;;;;;;;5051821;28;20032;-83
2023/06/05 09:34:45;;;;;;;8.55;7.28;;;;;;;;;;5025063;28;20344;-83
2023/06/05 09:37:12;;;;;;;10.70;7.88;;;;;;;;;;5043745;28;20046;-83
2023/06/05 09:39:39;;;;;;;10.30;7.40;;;;;;;;;;5022039;28;20030;-83
2023/06/05 09:42:06;;;;;;;9.38;7.50;;;;;;;;;;5038289;28;20087;-82
2023/06/05 09:44:32;;;;;;;11.55;7.90;;;;;;;;;;5041783;28;20140;-82
2023/06/05 09:47:07;;;;;;;11.43;8.10;;;;;;;;;;5024187;28;20033;-82
2023/06/05 09:49:38;;;;;;;13.32;7.75;;;;;;;;;;5041359;28;20037;-83
2023/06/05 09:52:04;;;;;;;9.48;7.95;;;;;;;;;;5040783;28;20045;-82
2023/06/05 09:54:30;;;;;;;14.25;8.13;;;;;;;;;;5028064;28;20041;-83
2023/06/05 09:57:01;;;;;;;11.73;8.30;;;;;;;;;;5032500;28;20052;-84
2023/06/05 09:59:31;;;;;;;9.35;7.25;;;;;;;;;;5056068;28;20115;-84
2023/06/05 10:02:00;;;;;;;11.90;7.80;;;;;;;;;;5021700;28;20037;-84
2023/06/05 10:04:27;;;;;;;12.57;8.30;;;;;;;;;;5007129;28;20041;-84
2023/06/05 10:06:57;;;;;;;11.43;7.60;;;;;;;;;;5042644;28;20045;-83
2023/06/05 10:09:24;;;;;;;11.38;7.50;;;;;;;;;;5024367;28;20045;-84
2023/06/05 10:11:50;;;;;;;14.07;8.40;;;;;;;;;;5025374;28;20065;-84
2023/06/05 10:14:16;;;;;;;14.40;8.38;;;;;;;;;;5040328;28;20065;-83
2023/06/05 10:16:43;;;;;;;13.48;8.50;;;;;;;;;;5044979;28;20466;-83
2023/06/05 10:19:09;;;;;;;10.48;7.57;;;;;;;;;;5026090;28;20030;-81
2023/06/05 10:21:36;;;;;;;11.90;8.20;;;;;;;;;;5056871;28;20033;-84
2023/06/05 10:24:09;;;;;;;9.68;7.65;;;;;;;;;;5042612;28;20045;-83
2023/06/05 10:27:00;;;;;;;18.65;8.50;;;;;;;;;;5030868;28;20127;-83
2023/06/05 10:30:08;;;;;;;12.23;8.05;;;;;;;;;;5046308;28;20488;-83
2023/06/05 10:33:19;;;;;;;11.63;8.05;;;;;;;;;;5029604;28;20038;-83
2023/06/05 10:36:01;;;;;;;11.02;8.07;;;;;;;;;;5018213;28;20045;-83
2023/06/05 10:38:27;;;;;;;13.68;8.55;;;;;;;;;;5029561;28;20057;-83
2023/06/05 10:40:54;;;;;;;11.82;6.78;;;;;;;;;;5033136;28;20056;-83
2023/06/05 10:43:33;;;;;;;13.45;8.85;;;;;;;;;;5017667;28;20812;-84
2023/06/05 10:46:00;;;;;;;10.85;7.68;;;;;;;;;;5027969;28;20044;-83
2023/06/05 10:49:07;;;;;;;10.60;7.40;;;;;;;;;;5014763;28;20040;-84
2023/06/05 10:51:42;;;;;;;11.32;7.65;;;;;;;;;;5004711;28;20060;-85
2023/06/05 10:54:10;;;;;;;12.45;8.65;;;;;;;;;;5036327;28;20040;-84
2023/06/05 10:56:58;;;;;;;11.13;8.40;;;;;;;;;;5053244;28;20099;-83
2023/06/05 10:59:25;;;;;;;11.35;8.52;;;;;;;;;;5033360;28;20132;-83
2023/06/05 11:02:06;;;;;;;11.43;8.38;;;;;;;;;;5048201;28;20042;-84
2023/06/05 11:04:46;;;;;;;11.00;8.80;;;;;;;;;;5029326;28;20045;-83
2023/06/05 11:07:16;;;;;;;13.50;8.88;;;;;;;;;;5029526;28;20041;-83
2023/06/05 11:10:20;;;;;;;12.50;8.68;;;;;;;;;;5038151;28;20104;-83
2023/06/05 11:12:45;;;;;;;10.82;8.65;;;;;;;;;;5047786;28;20034;-84
2023/06/05 11:15:15;;;;;;;10.38;8.10;;;;;;;;;;5049420;28;20041;-84
2023/06/05 11:17:46;;;;;;;13.82;9.23;;;;;;;;;;5013783;28;20391;-83
2023/06/05 11:20:32;;;;;;;12.02;9.15;;;;;;;;;;5029607;28;20040;-82
2023/06/05 11:22:57;;;;;;;13.00;8.55;;;;;;;;;;5015189;28;20056;-82
2023/06/05 11:25:32;;;;;;;12.63;8.75;;;;;;;;;;5060701;28;20033;-83
2023/06/05 11:28:07;;;;;;;11.15;8.35;;;;;;;;;;5031862;28;20256;-84
2023/06/05 11:30:44;;;;;;;13.60;8.63;;;;;;;;;;5008047;28;20045;-83
2023/06/05 11:33:14;;;;;;;11.65;8.48;;;;;;;;;;5032305;28;20029;-84
2023/06/05 11:35:43;;;;;;;12.43;7.55;;;;;;;;;;5047640;28;20712;-82
2023/06/05 11:38:17;;;;;;;10.45;8.20;;;;;;;;;;5045358;28;20029;-83
2023/06/05 11:40:44;;;;;;;11.40;8.95;;;;;;;;;;5042023;28;20041;-82
2023/06/05 11:43:11;;;;;;;10.68;7.75;;;;;;;;;;5057046;28;20060;-82
2023/06/05 11:45:39;;;;;;;11.88;8.20;;;;;;;;;;5053734;28;20087;-83
2023/06/05 11:48:05;;;;;;;10.75;8.57;;;;;;;;;;5051021;28;20060;-82
2023/06/05 11:50:30;;;;;;;10.35;8.05;;;;;;;;;;5028896;28;20297;-84
2023/06/05 11:53:06;;;;;;;8.48;7.50;;;;;;;;;;5045228;28;20029;-82
2023/06/05 11:55:43;;;;;;;11.63;8.98;;;;;;;;;;5010874;28;20125;-85
2023/06/05 11:58:10;;;;;;;11.93;8.50;;;;;;;;;;5043846;28;20045;-84
2023/06/05 12:00:36;;;;;;;11.77;8.77;;;;;;;;;;5026641;28;20044;-83
2023/06/05 12:03:01;;;;;;;11.85;9.80;;;;;;;;;;5025142;28;20037;-82
2023/06/05 12:05:27;;;;;;;8.88;7.85;;;;;;;;;;5042981;28;20052;-83
2023/06/05 12:07:53;;;;;;;10.93;9.05;;;;;;;;;;5050713;28;20047;-83
2023/06/05 12:10:19;;;;;;;10.02;8.80;;;;;;;;;;5041356;28;20044;-83
2023/06/05 12:12:52;;;;;;;11.40;8.10;;;;;;;;;;5038634;28;20033;-84
2023/06/05 12:15:19;;;;;;;11.48;8.32;;;;;;;;;;5044239;28;20040;-84
2023/06/05 12:18:00;;;;;;;10.65;8.27;;;;;;;;;;5035059;28;20033;-85
2023/06/05 12:20:38;;;;;;;11.80;8.45;;;;;;;;;;5029236;28;20045;-84
2023/06/05 12:23:03;;;;;;;12.35;8.45;;;;;;;;;;5033575;28;20037;-84
2023/06/05 12:25:29;;;;;;;9.60;7.65;;;;;;;;;;5046746;28;20143;-84
2023/06/05 12:27:55;;;;;;;11.98;8.05;;;;;;;;;;5033971;28;20032;-85
2023/06/05 12:30:20;;;;;;;9.93;8.00;;;;;;;;;;5038417;28;20409;-84
2023/06/05 12:32:48;;;;;;;9.57;8.10;;;;;;;;;;5055458;28;20127;-83
2023/06/05 12:35:21;;;;;;;11.63;8.40;;;;;;;;;;5053568;28;20064;-83
2023/06/05 12:37:47;;;;;;;9.55;7.07;;;;;;;;;;5049345;28;20040;-84
2023/06/05 12:40:14;;;;;;;8.85;7.93;;;;;;;;;;5047705;28;20044;-83
2023/06/05 12:42:43;;;;;;;10.40;7.93;;;;;;;;;;5040975;28;20025;-84
2023/06/05 12:45:10;;;;;;;10.48;7.93;;;;;;;;;;5026071;28;20423;-84
2023/06/05 12:47:37;;;;;;;10.50;8.00;;;;;;;;;;5026449;28;20037;-84
2023/06/05 12:50:05;;;;;;;10.75;8.88;;;;;;;;;;5026252;28;20056;-83
2023/06/05 12:52:31;;;;;;;11.80;9.27;;;;;;;;;;5029068;28;20189;-83
2023/06/05 12:54:57;;;;;;;11.18;8.68;;;;;;;;;;5039814;28;20124;-84
2023/06/05 12:57:23;;;;;;;10.43;8.50;;;;;;;;;;5055157;28;20032;-84
2023/06/05 12:59:50;;;;;;;13.13;8.43;;;;;;;;;;5058954;28;20128;-84
2023/06/05 13:02:16;;;;;;;11.00;8.52;;;;;;;;;;5053861;28;20025;-84
2023/06/05 13:04:41;;;;;;;10.45;8.80;;;;;;;;;;5035072;28;20037;-84
2023/06/05 13:07:08;;;;;;;11.63;8.70;;;;;;;;;;5049522;28;20033;-84
2023/06/05 13:09:34;;;;;;;12.32;9.15;;;;;;;;;;5028641;28;20045;-83
2023/06/05 13:12:01;;;;;;;10.45;9.07;;;;;;;;;;5026178;28;20034;-83
2023/06/05 13:14:27;;;;;;;10.52;8.55;;;;;;;;;;5042429;28;20048;-84
2023/06/05 13:16:52;;;;;;;11.50;9.23;;;;;;;;;;5043633;28;20411;-82
2023/06/05 13:19:18;;;;;;;10.80;9.30;;;;;;;;;;5044476;28;20506;-82
2023/06/05 13:21:43;;;;;;;11.63;8.77;;;;;;;;;;5027266;28;20056;-83
2023/06/05 13:24:09;;;;;;;12.68;8.63;;;;;;;;;;5044158;28;20033;-83
2023/06/05 13:26:34;;;;;;;10.10;8.45;;;;;;;;;;5043263;28;20447;-81
2023/06/05 13:29:00;;;;;;;10.63;8.38;;;;;;;;;;5019848;28;20028;-82
2023/06/05 13:31:25;;;;;;;10.63;8.73;;;;;;;;;;5039657;28;20037;-81
2023/06/05 13:33:51;;;;;;;14.98;9.02;;;;;;;;;;5054946;28;20045;-82
2023/06/05 13:36:16;;;;;;;13.15;9.30;;;;;;;;;;5034426;28;20037;-83
2023/06/05 13:38:42;;;;;;;11.98;9.82;;;;;;;;;;5029701;28;20097;-83
2023/06/05 13:41:08;;;;;;;14.52;10.15;;;;;;;;;;5026836;28;20040;-82
2023/06/05 13:43:37;;;;;;;11.65;8.70;;;;;;;;;;5030105;28;20037;-82
2023/06/05 13:46:03;;;;;;;8.55;7.65;;;;;;;;;;5006985;28;20065;-82
2023/06/05 13:48:29;;;;;;;11.77;7.85;;;;;;;;;;5024734;28;20378;-82
2023/06/05 13:50:56;;;;;;;10.68;8.25;;;;;;;;;;5040119;28;20044;-84
2023/06/05 13:53:22;;;;;;;10.65;8.25;;;;;;;;;;5044279;28;20044;-81
2023/06/05 13:55:47;;;;;;;10.07;8.18;;;;;;;;;;5029156;28;20040;-83
2023/06/05 13:58:13;;;;;;;11.05;7.88;;;;;;;;;;5044030;28;20037;-82
2023/06/05 14:00:38;;;;;;;9.63;7.72;;;;;;;;;;5040254;28;20091;-84
2023/06/05 14:03:04;;;;;;;10.32;8.05;;;;;;;;;;5039957;28;20030;-83
2023/06/05 14:05:30;;;;;;;11.95;7.85;;;;;;;;;;5038704;28;20757;-82
2023/06/05 14:07:56;;;;;;;12.57;9.23;;;;;;;;;;5021194;28;20034;-83
2023/06/05 14:10:23;;;;;;;11.40;9.20;;;;;;;;;;5039918;28;20056;-83
2023/06/05 14:12:50;;;;;;;11.32;9.23;;;;;;;;;;5038854;28;20038;-83
2023/06/05 14:15:17;;;;;;;13.98;10.02;;;;;;;;;;5021710;28;20090;-83
2023/06/05 14:17:44;;;;;;;18.80;12.40;;;;;;;;;;5040969;28;20052;-83
2023/06/05 14:20:11;;;;;;;13.88;10.65;;;;;;;;;;5040631;28;20041;-82
2023/06/05 14:22:36;;;;;;;15.48;11.57;;;;;;;;;;5040237;28;20038;-83
2023/06/05 14:25:02;;;;;;;16.83;11.55;;;;;;;;;;5039050;28;20033;-84
2023/06/05 14:27:28;;;;;;;15.10;11.48;;;;;;;;;;5022709;28;20047;-83
2023/06/05 14:29:54;;;;;;;12.68;10.00;;;;;;;;;;5024107;28;20049;-83
2023/06/05 14:32:19;;;;;;;14.43;10.98;;;;;;;;;;5023721;28;20037;-84
2023/06/05 14:34:45;;;;;;;12.05;9.25;;;;;;;;;;5023892;28;20647;-84
2023/06/05 14:37:11;;;;;;;13.20;10.60;;;;;;;;;;5036794;28;20025;-83
2023/06/05 14:39:37;;;;;;;12.15;8.57;;;;;;;;;;5021787;28;20415;-82
2023/06/05 14:42:02;;;;;;;9.60;7.80;;;;;;;;;;5018917;28;20033;-83
2023/06/05 14:44:28;;;;;;;9.48;7.70;;;;;;;;;;5022073;28;20034;-83